Time;durP1;ratioP1;P1;durP2;ratioP2;P2;SDS_P1;SDS_P2;PMS_P1;PMS_P2;Temp;Humidity;BMP_temperature;BMP_pressure;BME280_temperature;BME280_humidity;BME280_pressure;Samples;Min_cycle;Max_cycle;Signal;HPM_P1;HPM_P2
2020/12/20 00:00:42;;;;;;;8.83;6.07;;;9.80;99.90;;;8.35;100.00;101334.66;5022656;28;20260;-84
2020/12/20 00:03:27;;;;;;;9.03;6.47;;;9.90;99.90;;;8.36;100.00;101337.22;5026881;28;20215;-84
2020/12/20 00:06:13;;;;;;;9.73;6.27;;;9.90;99.90;;;8.29;100.00;101342.44;5029026;28;20308;-85
2020/12/20 00:08:59;;;;;;;12.10;6.07;;;9.90;99.90;;;8.27;100.00;101339.88;5038086;28;20215;-84
2020/12/20 00:11:48;;;;;;;10.83;6.40;;;9.90;99.90;;;8.29;100.00;101343.28;5023951;28;20604;-84
2020/12/20 00:14:36;;;;;;;7.03;4.80;;;9.90;99.90;;;8.28;100.00;101333.81;5025228;28;20276;-83
2020/12/20 00:17:21;;;;;;;9.53;5.43;;;9.90;99.90;;;8.31;100.00;101336.41;5009688;28;20217;-85
2020/12/20 00:20:08;;;;;;;11.27;6.23;;;9.90;99.90;;;8.45;100.00;101328.59;5023548;28;20211;-84
2020/12/20 00:22:53;;;;;;;11.00;5.97;;;9.90;99.90;;;8.44;100.00;101329.44;5019400;28;20237;-84
2020/12/20 00:25:38;;;;;;;10.47;5.30;;;9.90;99.90;;;8.50;100.00;101326.81;5021568;28;20227;-85
2020/12/20 00:28:24;;;;;;;10.57;5.63;;;9.90;99.90;;;8.42;100.00;101321.69;5025618;28;20286;-84
2020/12/20 00:31:10;;;;;;;7.97;5.20;;;9.90;99.90;;;8.61;100.00;101329.31;5023975;28;20223;-84
2020/12/20 00:33:55;;;;;;;11.87;5.67;;;9.90;99.90;;;8.50;100.00;101324.22;5023728;28;20677;-86
2020/12/20 00:36:44;;;;;;;15.60;5.97;;;9.90;99.90;;;8.66;100.00;101327.53;5027069;28;20224;-83
2020/12/20 00:39:30;;;;;;;12.40;5.47;;;9.90;99.90;;;8.65;100.00;101319.81;5025196;28;20266;-84
2020/12/20 00:42:15;;;;;;;12.03;5.93;;;10.00;99.90;;;8.63;100.00;101324.97;5026871;28;20371;-85
2020/12/20 00:45:00;;;;;;;10.80;6.47;;;10.00;99.90;;;8.63;100.00;101318.97;5020265;28;20235;-84
2020/12/20 00:47:48;;;;;;;9.23;5.53;;;10.00;99.90;;;8.46;100.00;101327.72;5031647;28;20290;-85
2020/12/20 00:50:34;;;;;;;11.03;5.40;;;10.00;99.90;;;8.50;100.00;101325.97;5031933;28;20215;-84
2020/12/20 00:53:19;;;;;;;11.83;6.40;;;10.00;99.90;;;8.52;100.00;101322.50;5021620;28;20229;-83
2020/12/20 00:56:06;;;;;;;11.60;5.47;;;10.10;99.90;;;8.47;100.00;101324.25;5014597;28;20200;-82
2020/12/20 00:58:51;;;;;;;9.73;5.40;;;10.00;99.90;;;8.39;100.00;101336.34;5035926;28;20251;-83
2020/12/20 01:01:36;;;;;;;8.00;5.00;;;10.00;99.90;;;8.51;100.00;101330.25;5026995;28;20292;-85
2020/12/20 01:04:22;;;;;;;9.97;5.57;;;10.10;99.90;;;8.48;100.00;101328.56;5024569;28;20200;-85
2020/12/20 01:07:07;;;;;;;12.03;5.47;;;10.10;99.90;;;8.52;100.00;101331.94;5013439;28;20284;-83
2020/12/20 01:09:53;;;;;;;8.53;4.77;;;10.10;99.90;;;8.27;100.00;101334.72;5010476;28;20248;-82
2020/12/20 01:12:38;;;;;;;12.67;5.60;;;10.00;99.90;;;8.27;100.00;101332.13;5018956;28;20621;-82
2020/12/20 01:15:29;;;;;;;9.53;4.80;;;10.10;99.90;;;8.26;100.00;101335.56;5024166;28;20220;-82
2020/12/20 01:18:14;;;;;;;11.43;5.33;;;10.10;99.90;;;8.43;100.00;101341.47;5011904;28;20228;-84
2020/12/20 01:21:03;;;;;;;11.13;6.00;;;10.10;99.90;;;8.35;100.00;101345.81;5016456;28;20211;-85
2020/12/20 01:23:48;;;;;;;9.30;5.77;;;10.00;99.90;;;8.42;100.00;101337.16;5029734;28;20211;-85
2020/12/20 01:26:33;;;;;;;14.07;6.90;;;10.00;99.90;;;8.34;100.00;101338.97;5017787;28;20228;-84
2020/12/20 01:29:18;;;;;;;8.90;5.37;;;10.00;99.90;;;8.34;100.00;101340.66;5006958;28;20248;-87
2020/12/20 01:32:04;;;;;;;10.40;5.37;;;10.00;99.90;;;8.35;100.00;101337.22;5028110;28;20293;-82
2020/12/20 01:34:49;;;;;;;10.97;6.27;;;10.00;99.90;;;8.41;100.00;101343.22;5019670;28;20265;-84
2020/12/20 01:37:35;;;;;;;9.97;5.80;;;10.00;99.90;;;8.37;100.00;101344.09;5021893;28;20215;-83
2020/12/20 01:40:20;;;;;;;9.60;5.47;;;10.00;99.90;;;8.39;100.00;101349.22;5017137;28;20240;-84
2020/12/20 01:43:06;;;;;;;10.97;5.40;;;10.00;99.90;;;8.45;100.00;101340.63;5027004;28;20224;-85
2020/12/20 01:45:51;;;;;;;10.57;5.43;;;10.00;99.90;;;8.36;100.00;101346.69;5014682;28;20208;-82
2020/12/20 01:48:37;;;;;;;8.93;5.03;;;10.00;99.90;;;8.29;100.00;101348.44;5029603;28;20236;-85
2020/12/20 01:51:22;;;;;;;9.23;5.17;;;10.00;99.90;;;8.34;100.00;101357.00;5037826;28;20235;-83
2020/12/20 01:54:10;;;;;;;8.63;5.47;;;10.00;99.90;;;8.21;100.00;101360.53;5026349;28;20215;-84
2020/12/20 01:56:56;;;;;;;13.47;6.10;;;10.00;99.90;;;8.37;100.00;101349.25;5029195;28;20286;-85
2020/12/20 01:59:42;;;;;;;10.53;5.53;;;10.00;99.90;;;8.35;100.00;101348.38;5021856;28;20227;-86
2020/12/20 02:02:27;;;;;;;10.17;5.70;;;10.00;99.90;;;8.32;100.00;101335.53;5036537;28;20255;-86
2020/12/20 02:05:12;;;;;;;13.07;5.60;;;9.90;99.90;;;8.26;100.00;101349.31;5009054;28;20283;-84
2020/12/20 02:07:57;;;;;;;11.40;5.70;;;9.90;99.90;;;8.25;100.00;101344.16;5012082;28;20207;-84
2020/12/20 02:10:44;;;;;;;12.50;5.73;;;10.00;99.90;;;8.29;100.00;101353.59;5032037;28;20223;-84
2020/12/20 02:13:29;;;;;;;10.70;5.60;;;10.00;99.90;;;8.28;100.00;101354.44;5028053;28;20216;-84
2020/12/20 02:16:16;;;;;;;11.07;6.47;;;10.00;99.90;;;8.26;100.00;101348.47;5026881;28;20208;-85
2020/12/20 02:19:01;;;;;;;8.57;5.20;;;10.00;99.90;;;8.29;100.00;101360.47;5029024;28;20224;-83
2020/12/20 02:21:47;;;;;;;10.33;6.00;;;10.00;99.90;;;8.11;100.00;101356.31;5033484;28;20223;-83
2020/12/20 02:24:32;;;;;;;9.20;5.37;;;9.90;99.90;;;8.05;100.00;101355.47;5043284;28;20451;-82
2020/12/20 02:27:18;;;;;;;11.33;6.10;;;9.90;99.90;;;8.10;100.00;101354.59;5029998;28;20207;-81
2020/12/20 02:30:04;;;;;;;14.53;5.57;;;9.90;99.90;;;8.20;100.00;101363.97;5034766;28;20251;-81
2020/12/20 02:32:49;;;;;;;10.63;5.67;;;9.90;99.90;;;8.06;100.00;101358.91;5045997;28;20235;-81
2020/12/20 02:35:35;;;;;;;9.27;5.37;;;9.90;99.90;;;8.04;100.00;101356.34;5043801;28;20212;-82
2020/12/20 02:38:21;;;;;;;7.80;5.50;;;9.90;99.90;;;8.04;100.00;101345.19;5034677;28;20223;-82
2020/12/20 02:41:06;;;;;;;7.00;4.90;;;9.90;99.90;;;8.06;100.00;101341.75;5031123;28;20204;-81
2020/12/20 02:43:51;;;;;;;9.67;5.47;;;9.80;99.90;;;8.10;100.00;101354.59;5023830;28;20246;-80
2020/12/20 02:46:37;;;;;;;11.23;5.70;;;9.80;99.90;;;8.19;100.00;101344.22;5038538;28;20215;-81
2020/12/20 02:49:22;;;;;;;10.03;5.63;;;9.80;99.90;;;8.17;100.00;101351.97;5045462;28;20280;-80
2020/12/20 02:52:07;;;;;;;12.40;5.63;;;9.80;99.90;;;8.13;100.00;101350.25;5038028;28;20250;-80
2020/12/20 02:54:53;;;;;;;10.90;5.50;;;9.80;99.90;;;8.14;100.00;101348.56;5034153;28;20190;-81
2020/12/20 02:57:39;;;;;;;11.23;5.60;;;9.80;99.90;;;8.15;100.00;101352.81;5041054;28;20256;-81
2020/12/20 03:00:24;;;;;;;9.37;5.53;;;9.80;99.90;;;8.27;100.00;101363.06;5032143;28;20189;-81
2020/12/20 03:03:10;;;;;;;13.63;5.23;;;9.80;99.90;;;8.15;100.00;101353.69;5024294;28;20212;-81
2020/12/20 03:05:54;;;;;;;13.53;6.20;;;9.80;99.90;;;8.14;100.00;101354.56;5051315;28;20239;-80
2020/12/20 03:08:40;;;;;;;9.83;5.50;;;9.80;99.90;;;7.99;100.00;101352.09;5030917;28;20281;-82
2020/12/20 03:11:26;;;;;;;9.53;5.10;;;9.80;99.90;;;8.09;100.00;101348.59;5035866;28;20212;-81
2020/12/20 03:14:11;;;;;;;12.53;5.73;;;9.80;99.90;;;8.14;100.00;101346.81;5047745;28;20241;-82
2020/12/20 03:16:57;;;;;;;13.70;6.37;;;9.70;99.90;;;8.22;100.00;101344.19;5035419;28;20244;-83
2020/12/20 03:19:42;;;;;;;8.77;4.93;;;9.80;99.90;;;8.30;100.00;101338.97;5025714;28;20200;-81
2020/12/20 03:22:27;;;;;;;11.00;5.33;;;9.80;99.90;;;8.25;100.00;101344.16;5027915;28;20240;-80
2020/12/20 03:25:12;;;;;;;6.47;5.00;;;9.80;99.90;;;8.30;100.00;101347.56;5037237;28;20254;-82
2020/12/20 03:27:59;;;;;;;10.83;5.67;;;9.80;99.90;;;8.17;100.00;101344.22;5044704;28;20187;-81
2020/12/20 03:30:44;;;;;;;10.90;5.07;;;9.70;99.90;;;8.25;100.00;101349.31;5031428;28;20223;-81
2020/12/20 03:33:30;;;;;;;13.63;5.63;;;9.80;99.90;;;8.25;100.00;101350.19;5028007;28;20216;-82
2020/12/20 03:36:15;;;;;;;11.00;5.13;;;9.80;99.90;;;8.30;100.00;101349.28;5037428;28;20224;-80
2020/12/20 03:39:00;;;;;;;8.23;5.10;;;9.80;99.90;;;8.33;100.00;101352.72;5027595;28;20245;-82
2020/12/20 03:41:46;;;;;;;18.43;5.10;;;9.80;99.90;;;8.42;100.00;101357.78;5038336;28;20759;-81
2020/12/20 03:44:32;;;;;;;10.60;4.40;;;9.80;99.90;;;8.37;100.00;101359.56;5040994;28;20187;-82
2020/12/20 03:47:17;;;;;;;12.63;5.43;;;9.80;99.90;;;8.33;100.00;101357.88;5042448;28;20272;-81
2020/12/20 03:50:03;;;;;;;7.30;4.63;;;9.80;99.90;;;8.24;100.00;101357.94;5041670;28;20238;-83
2020/12/20 03:52:48;;;;;;;9.00;4.90;;;9.90;99.90;;;8.38;100.00;101358.66;5036072;28;20223;-80
2020/12/20 03:55:34;;;;;;;11.03;5.20;;;9.90;99.90;;;8.37;100.00;101362.13;5043978;28;20223;-80
2020/12/20 03:58:22;;;;;;;7.50;4.30;;;9.90;99.90;;;8.36;100.00;101351.84;5026588;28;20210;-80
2020/12/20 04:01:08;;;;;;;9.93;5.20;;;9.90;99.90;;;8.31;100.00;101359.63;5040712;28;20208;-81
2020/12/20 04:03:53;;;;;;;11.30;4.73;;;9.90;99.90;;;8.44;100.00;101357.81;5036265;28;20204;-80
2020/12/20 04:06:38;;;;;;;9.90;4.70;;;9.90;99.90;;;8.38;100.00;101361.25;5041290;28;20250;-80
2020/12/20 04:09:23;;;;;;;6.87;4.40;;;9.90;99.90;;;8.38;100.00;101361.25;5044487;28;20238;-81
2020/12/20 04:12:10;;;;;;;9.57;4.43;;;9.90;99.90;;;8.34;100.00;101359.59;5034321;28;20211;-79
2020/12/20 04:14:54;;;;;;;10.43;5.23;;;9.90;99.90;;;8.42;100.00;101362.09;5038593;28;20650;-80
2020/12/20 04:17:40;;;;;;;9.60;4.97;;;9.90;99.90;;;8.43;100.00;101364.66;5040307;28;20192;-80
2020/12/20 04:20:26;;;;;;;9.00;4.47;;;9.90;99.90;;;8.37;100.00;101367.28;5036040;28;20204;-80
2020/12/20 04:23:11;;;;;;;10.60;4.80;;;9.90;99.90;;;8.36;100.00;101372.47;5030949;28;20196;-83
2020/12/20 04:25:57;;;;;;;6.83;4.60;;;9.90;99.90;;;8.45;100.00;101362.09;5036476;28;20207;-80
2020/12/20 04:28:42;;;;;;;6.87;4.53;;;10.00;99.90;;;8.39;100.00;101362.97;5045486;28;20238;-80
2020/12/20 04:31:27;;;;;;;8.33;4.93;;;9.90;99.90;;;8.45;100.00;101361.25;5042098;28;20210;-81
2020/12/20 04:34:13;;;;;;;11.60;4.97;;;10.00;99.90;;;8.38;100.00;101361.25;5040568;28;20200;-82
2020/12/20 04:36:58;;;;;;;8.07;4.70;;;10.00;99.90;;;8.45;100.00;101361.25;5041281;28;20271;-82
2020/12/20 04:39:44;;;;;;;10.30;5.10;;;10.00;99.90;;;8.45;100.00;101351.78;5036547;28;20220;-81
2020/12/20 04:42:30;;;;;;;13.17;4.50;;;10.00;99.90;;;8.39;100.00;101349.22;5043241;28;20227;-80
2020/12/20 04:45:16;;;;;;;11.80;5.50;;;10.00;99.90;;;8.39;100.00;101349.22;5030223;28;20203;-81
2020/12/20 04:48:03;;;;;;;7.53;4.37;;;10.00;99.90;;;8.38;100.00;101348.34;5049692;28;20204;-80
2020/12/20 04:50:51;;;;;;;8.20;4.10;;;10.00;99.90;;;8.31;100.00;101351.88;5033741;28;20180;-82
2020/12/20 04:53:36;;;;;;;9.30;4.43;;;10.00;99.90;;;8.33;100.00;101349.28;5024931;28;20261;-81
2020/12/20 04:56:23;;;;;;;13.33;4.43;;;10.00;99.90;;;8.36;100.00;101360.41;5033569;28;20210;-82
2020/12/20 04:59:09;;;;;;;8.73;4.37;;;10.00;99.90;;;8.39;100.00;101360.38;5041843;28;20228;-81
2020/12/20 05:01:55;;;;;;;10.57;5.23;;;10.00;99.90;;;8.29;100.00;101356.16;5036775;28;20235;-82
2020/12/20 05:04:40;;;;;;;7.77;4.40;;;10.00;99.90;;;8.23;100.00;101361.38;5037224;28;20203;-81
2020/12/20 05:07:26;;;;;;;7.47;4.10;;;10.00;99.90;;;8.27;100.00;101365.66;5036373;28;20256;-81
2020/12/20 05:10:12;;;;;;;8.20;4.03;;;10.00;99.90;;;8.21;100.00;101360.53;5029159;28;20251;-81
2020/12/20 05:12:58;;;;;;;11.53;4.57;;;10.00;99.90;;;8.28;100.00;101369.91;5036268;28;20215;-82
2020/12/20 05:15:44;;;;;;;11.57;5.10;;;10.00;99.90;;;8.39;100.00;101368.13;5036704;28;20278;-81
2020/12/20 05:18:30;;;;;;;8.13;4.70;;;10.00;99.90;;;8.32;100.00;101363.88;5035808;28;20219;-81
2020/12/20 05:21:26;;;;;;;8.80;4.07;;;10.00;99.90;;;8.24;100.00;101363.09;5036569;28;20224;-81
2020/12/20 05:24:28;;;;;;;9.67;4.40;;;10.00;99.90;;;8.15;100.00;101378.59;5043662;28;20192;-82
2020/12/20 05:27:22;;;;;;;9.10;4.03;;;10.00;99.90;;;8.12;100.00;101373.47;5017851;28;20212;-80
2020/12/20 05:30:13;;;;;;;11.07;4.47;;;10.00;99.90;;;8.24;100.00;101381.13;5026182;28;20239;-79
2020/12/20 05:32:58;;;;;;;7.97;4.23;;;10.00;99.90;;;8.31;100.00;101380.22;5042937;28;20239;-82
2020/12/20 05:35:43;;;;;;;14.17;4.37;;;9.90;99.90;;;8.31;100.00;101380.22;5038363;28;20186;-81
2020/12/20 05:38:29;;;;;;;12.90;4.83;;;10.00;99.90;;;8.24;100.00;101381.13;5038093;28;20184;-83
2020/12/20 05:41:28;;;;;;;7.97;4.57;;;9.90;99.90;;;8.32;100.00;101381.06;5047285;28;20265;-83
2020/12/20 05:44:18;;;;;;;12.53;4.93;;;9.90;99.90;;;8.25;100.00;101385.41;5023848;28;20197;-80
2020/12/20 05:47:06;;;;;;;10.50;4.20;;;9.90;99.90;;;8.35;100.00;101381.91;5031778;28;20192;-82
2020/12/20 05:49:51;;;;;;;10.00;4.57;;;9.90;99.90;;;8.32;100.00;101389.66;5035647;28;20203;-81
2020/12/20 05:52:36;;;;;;;7.17;4.07;;;9.90;99.90;;;8.32;100.00;101383.66;5026101;28;20204;-82
2020/12/20 05:55:21;;;;;;;9.90;4.87;;;9.90;99.90;;;8.30;100.00;101385.38;5023340;28;20213;-81
2020/12/20 05:58:12;;;;;;;14.87;5.57;;;9.90;99.90;;;8.29;100.00;101388.84;5038416;28;20196;-80
2020/12/20 06:00:59;;;;;;;10.40;4.43;;;9.90;99.90;;;8.27;100.00;101386.28;5052285;28;20178;-82
2020/12/20 06:03:45;;;;;;;11.30;4.80;;;9.90;99.90;;;8.33;100.00;101393.09;5041463;28;20224;-79
2020/12/20 06:06:35;;;;;;;13.37;4.77;;;9.90;99.90;;;8.32;100.00;101386.22;5020968;28;20263;-81
2020/12/20 06:09:25;;;;;;;8.43;4.43;;;9.90;99.90;;;8.34;100.00;101397.38;5021674;28;20235;-82
2020/12/20 06:12:12;;;;;;;12.77;5.00;;;9.90;99.90;;;8.18;100.00;101401.78;5030764;28;20228;-82
2020/12/20 06:14:59;;;;;;;13.07;5.13;;;9.90;99.90;;;8.12;100.00;101401.81;5027362;28;20192;-81
2020/12/20 06:17:54;;;;;;;10.03;4.77;;;9.90;99.90;;;8.12;100.00;101394.09;5037382;28;20208;-81
2020/12/20 06:20:52;;;;;;;8.57;5.37;;;9.90;99.90;;;8.12;100.00;101400.13;5037496;28;20254;-80
2020/12/20 06:23:43;;;;;;;11.13;4.70;;;9.90;99.90;;;8.16;100.00;101400.94;5038071;28;20190;-81
2020/12/20 06:26:33;;;;;;;10.43;5.03;;;9.90;99.90;;;8.15;100.00;101400.09;5027870;28;20180;-82
2020/12/20 06:29:23;;;;;;;14.10;5.23;;;9.60;99.90;;;8.11;100.00;101402.69;5023650;28;20216;-81
2020/12/20 06:32:13;;;;;;;8.73;4.97;;;9.90;99.90;;;8.10;100.00;101399.25;5018528;28;20212;-81
2020/12/20 06:35:09;;;;;;;9.77;4.37;;;9.90;99.90;;;7.92;100.00;101405.38;5024544;28;20192;-81
2020/12/20 06:37:56;;;;;;;16.30;4.73;;;9.80;99.90;;;8.02;100.00;101399.28;5038122;28;20196;-80
2020/12/20 06:40:43;;;;;;;11.83;5.20;;;9.80;99.90;;;8.05;100.00;101409.59;5039405;28;20208;-82
2020/12/20 06:43:32;;;;;;;14.33;5.23;;;9.80;99.90;;;8.11;100.00;101413.84;5039037;28;20249;-81
2020/12/20 06:46:38;;;;;;;12.87;5.00;;;9.80;99.90;;;8.07;100.00;101409.56;5038836;28;20224;-81
2020/12/20 06:49:36;;;;;;;9.20;4.40;;;9.80;99.90;;;8.05;100.00;101413.91;5039124;28;20208;-82
2020/12/20 06:52:24;;;;;;;11.60;5.00;;;9.70;99.90;;;7.95;100.00;101412.22;5038546;28;20251;-81
2020/12/20 06:55:12;;;;;;;10.00;4.60;;;9.70;99.90;;;7.97;100.00;101405.34;5036158;28;20180;-82
2020/12/20 06:58:17;;;;;;;11.60;4.97;;;9.70;99.90;;;7.91;100.00;101406.22;5019351;28;20205;-81
2020/12/20 07:01:43;;;;;;;9.97;4.50;;;9.70;99.90;;;7.95;100.00;101413.06;5022350;28;20188;-81
2020/12/20 07:04:40;;;;;;;11.53;4.67;;;9.70;99.90;;;8.02;100.00;101406.19;5034114;28;20175;-83
2020/12/20 07:07:25;;;;;;;19.17;5.63;;;9.70;99.90;;;7.84;100.00;101409.69;5042031;28;20185;-82
2020/12/20 07:10:47;;;;;;;10.33;4.70;;;9.60;99.90;;;7.90;100.00;101409.69;5045784;28;20247;-81
2020/12/20 07:13:34;;;;;;;13.70;5.17;;;9.60;99.90;;;7.93;100.00;101408.78;5030462;28;20238;-81
2020/12/20 07:16:22;;;;;;;9.47;4.60;;;9.60;99.90;;;7.87;100.00;101407.13;5044908;28;20284;-80
2020/12/20 07:19:09;;;;;;;9.47;4.00;;;9.60;99.90;;;7.99;100.00;101419.09;5032111;28;20219;-80
2020/12/20 07:22:04;;;;;;;15.13;5.47;;;9.60;99.90;;;8.00;100.00;101415.63;5038400;28;20228;-81
2020/12/20 07:24:51;;;;;;;12.50;4.67;;;9.60;99.90;;;7.89;100.00;101418.25;5050655;28;20199;-82
2020/12/20 07:27:36;;;;;;;12.87;5.03;;;9.60;99.90;;;7.83;100.00;101416.56;5026834;28;20196;-80
2020/12/20 07:30:22;;;;;;;10.97;4.97;;;9.50;99.90;;;7.85;100.00;101414.84;5026092;28;20235;-81
2020/12/20 07:33:08;;;;;;;18.60;5.30;;;9.50;99.90;;;7.89;100.00;101420.84;5037911;28;20240;-80
2020/12/20 07:35:53;;;;;;;11.70;4.60;;;9.50;99.90;;;7.91;100.00;101431.97;5035461;28;20215;-81
2020/12/20 07:38:40;;;;;;;13.23;5.70;;;9.50;99.90;;;7.86;100.00;101423.44;5038338;28;20177;-82
2020/12/20 07:41:26;;;;;;;9.37;4.50;;;9.50;99.90;;;7.83;100.00;101419.13;5038008;28;20279;-80
2020/12/20 07:44:12;;;;;;;13.07;5.43;;;9.50;99.90;;;7.92;100.00;101425.97;5036920;28;20185;-82
2020/12/20 07:46:58;;;;;;;16.00;4.40;;;9.50;99.90;;;7.86;100.00;101438.88;5036882;28;20192;-82
2020/12/20 07:49:43;;;;;;;13.93;5.03;;;9.50;99.90;;;7.77;100.00;101444.09;5038585;28;20227;-81
2020/12/20 07:52:28;;;;;;;13.57;5.43;;;9.50;99.90;;;7.78;100.00;101446.66;5036461;28;20244;-82
2020/12/20 07:55:15;;;;;;;13.80;6.20;;;9.50;99.90;;;7.95;100.00;101449.13;5045314;28;20228;-81
2020/12/20 07:58:01;;;;;;;11.50;4.53;;;9.50;99.90;;;7.78;100.00;101445.78;5040083;28;20253;-84
2020/12/20 08:00:46;;;;;;;13.23;4.93;;;9.50;99.90;;;7.86;100.00;101438.88;5039412;28;20203;-81
2020/12/20 08:03:35;;;;;;;11.80;4.80;;;9.50;99.90;;;7.83;100.00;101438.91;5051493;28;20219;-83
2020/12/20 08:06:20;;;;;;;10.53;4.47;;;9.40;99.90;;;7.89;100.00;101451.75;5031226;28;20203;-81
2020/12/20 08:09:10;;;;;;;10.67;4.30;;;9.50;99.90;;;7.92;100.00;101456.03;5023872;28;20212;-80
2020/12/20 08:11:57;;;;;;;13.33;4.60;;;9.50;99.90;;;7.86;100.00;101455.19;5036437;28;20224;-81
2020/12/20 08:14:42;;;;;;;13.53;4.23;;;9.50;99.90;;;7.83;100.00;101462.09;5037381;28;20191;-81
2020/12/20 08:17:28;;;;;;;14.03;5.30;;;9.50;99.90;;;7.94;100.00;101462.88;5018588;28;20233;-84
2020/12/20 08:20:14;;;;;;;13.80;4.03;;;9.50;99.90;;;7.79;100.00;101468.09;5027020;28;20215;-85
2020/12/20 08:23:02;;;;;;;11.93;4.03;;;9.50;99.90;;;7.82;100.00;101471.50;5039251;28;20239;-84
2020/12/20 08:25:48;;;;;;;13.03;4.13;;;9.50;99.90;;;7.95;100.00;101467.19;5030734;28;20232;-83
2020/12/20 08:28:34;;;;;;;12.87;4.93;;;9.50;99.90;;;7.93;100.00;101455.16;5005262;28;20212;-83
2020/12/20 08:31:21;;;;;;;10.10;4.30;;;9.50;99.90;;;7.98;100.00;101459.44;5024394;28;20290;-84
2020/12/20 08:34:17;;;;;;;14.10;4.33;;;9.50;99.90;;;8.05;100.00;101460.28;5019640;28;20265;-84
2020/12/20 08:37:10;;;;;;;13.07;4.60;;;9.50;99.90;;;8.07;100.00;101459.41;5009201;28;20205;-83
2020/12/20 08:40:07;;;;;;;11.20;4.17;;;9.50;99.90;;;8.10;100.00;101473.13;5019514;28;20227;-85
2020/12/20 08:42:58;;;;;;;16.47;4.87;;;9.50;99.90;;;8.14;100.00;101467.09;5008578;28;20316;-82
2020/12/20 08:45:45;;;;;;;12.63;4.73;;;9.60;99.90;;;8.04;100.00;101477.44;5007902;28;20212;-81
2020/12/20 08:48:30;;;;;;;9.97;4.60;;;9.60;99.90;;;8.14;100.00;101470.53;5011632;28;20262;-82
2020/12/20 08:51:23;;;;;;;17.87;4.33;;;9.60;99.90;;;8.04;100.00;101476.59;5002965;28;20232;-82
2020/12/20 08:54:11;;;;;;;15.13;4.90;;;9.60;99.90;;;8.23;100.00;101469.63;5010992;28;20269;-82
2020/12/20 08:56:59;;;;;;;9.47;3.87;;;9.60;99.90;;;8.20;100.00;101474.78;5022911;28;20200;-81
2020/12/20 08:59:46;;;;;;;13.50;4.23;;;9.70;99.90;;;8.22;100.00;101484.25;5022854;28;20255;-82
2020/12/20 09:02:32;;;;;;;12.03;4.40;;;9.70;99.90;;;8.37;100.00;101493.63;5025458;28;20231;-81
2020/12/20 09:05:17;;;;;;;12.37;4.50;;;9.70;99.90;;;8.31;100.00;101496.22;5023731;28;20286;-81
2020/12/20 09:08:05;;;;;;;12.93;3.90;;;9.70;99.90;;;8.32;100.00;101508.22;5020130;28;20619;-84
2020/12/20 09:12:02;;;;;;;15.87;4.50;;;9.80;99.90;;;8.34;100.00;101503.06;5006047;28;20204;-82
2020/12/20 09:15:09;;;;;;;17.37;4.40;;;9.80;99.90;;;8.27;100.00;101507.41;5004003;28;20255;-83
2020/12/20 09:17:57;;;;;;;16.30;4.70;;;9.80;99.90;;;8.29;100.00;101510.81;5014305;28;20306;-83
2020/12/20 09:20:44;;;;;;;9.33;4.83;;;9.80;99.90;;;8.21;100.00;101510.88;5020315;28;20200;-82
2020/12/20 09:23:29;;;;;;;8.60;3.80;;;9.90;99.90;;;8.22;100.00;101512.59;5014653;28;20208;-82
2020/12/20 09:26:15;;;;;;;15.93;4.63;;;9.90;99.90;;;8.32;100.00;101515.13;5026566;28;20701;-81
2020/12/20 09:29:07;;;;;;;11.60;4.27;;;9.90;99.90;;;8.36;100.00;101512.50;5022554;28;20244;-83
2020/12/20 09:31:53;;;;;;;11.10;4.37;;;10.00;99.90;;;8.39;100.00;101514.22;5008925;28;20232;-80
2020/12/20 09:34:40;;;;;;;13.37;4.87;;;10.00;99.90;;;8.36;100.00;101512.50;5011675;28;20239;-81
2020/12/20 09:37:25;;;;;;;10.60;3.73;;;10.00;99.90;;;8.40;100.00;101508.19;5012830;28;20284;-81
2020/12/20 09:40:10;;;;;;;12.53;4.57;;;10.00;99.90;;;8.38;100.00;101515.09;5011617;28;20207;-81
2020/12/20 09:42:55;;;;;;;12.90;4.27;;;10.00;99.90;;;8.42;100.00;101519.38;5015319;28;20282;-81
2020/12/20 09:45:40;;;;;;;12.43;4.53;;;10.10;99.90;;;8.42;100.00;101527.94;5016260;28;20205;-82
2020/12/20 09:48:27;;;;;;;10.67;4.23;;;10.10;99.90;;;8.49;100.00;101530.53;5008442;28;20208;-81
2020/12/20 09:51:13;;;;;;;12.37;4.50;;;10.10;99.90;;;8.51;100.00;101521.06;5013548;28;20204;-83
2020/12/20 09:53:58;;;;;;;12.90;4.30;;;10.20;99.90;;;8.52;100.00;101522.75;5013000;28;20566;-82
2020/12/20 09:56:43;;;;;;;11.63;4.33;;;10.20;99.90;;;8.60;100.00;101529.59;5019356;28;20211;-83
2020/12/20 09:59:28;;;;;;;14.10;4.57;;;10.20;99.90;;;8.64;100.00;101527.03;5012290;28;20208;-81
2020/12/20 10:02:14;;;;;;;10.13;4.07;;;10.30;99.90;;;8.67;100.00;101522.69;5017569;28;20270;-81
2020/12/20 10:04:59;;;;;;;10.70;4.47;;;10.30;99.90;;;8.68;100.00;101529.56;5016769;28;20216;-81
2020/12/20 10:07:45;;;;;;;13.53;4.37;;;10.30;99.90;;;8.73;100.00;101530.38;5016428;28;20223;-81
2020/12/20 10:10:30;;;;;;;17.20;4.73;;;10.40;99.90;;;8.73;100.00;101540.69;5012624;28;20240;-81
2020/12/20 10:13:15;;;;;;;14.87;4.90;;;10.40;99.90;;;8.77;100.00;101534.66;5016416;28;20708;-81
2020/12/20 10:16:01;;;;;;;15.30;4.93;;;10.50;99.90;;;8.77;100.00;101534.66;5019073;28;20259;-82
2020/12/20 10:18:46;;;;;;;17.30;5.43;;;10.50;99.90;;;8.76;100.00;101538.09;5016375;28;20208;-81
2020/12/20 10:21:31;;;;;;;13.67;3.83;;;10.50;99.90;;;8.77;100.00;101533.81;5009275;28;20233;-82
2020/12/20 10:24:17;;;;;;;10.33;4.10;;;10.60;99.90;;;8.81;100.00;101532.91;5023121;28;20216;-81
2020/12/20 10:27:02;;;;;;;14.20;4.43;;;10.60;99.90;;;8.88;100.00;101531.16;5015815;28;20220;-81
2020/12/20 10:29:47;;;;;;;11.50;4.37;;;10.60;99.90;;;8.87;100.00;101526.84;5020665;28;20910;-82
2020/12/20 10:32:35;;;;;;;13.20;3.80;;;10.70;99.90;;;8.94;100.00;101531.09;5018345;28;20239;-81
2020/12/20 10:35:23;;;;;;;16.43;5.60;;;10.70;99.90;;;8.97;100.00;101520.75;5022157;28;20211;-82
2020/12/20 10:38:08;;;;;;;26.70;16.20;;;10.70;99.90;;;9.01;100.00;101516.44;5022304;28;20243;-82
2020/12/20 10:40:55;;;;;;;38.37;28.73;;;10.80;99.90;;;9.08;100.00;101518.97;5013664;28;20750;-80
2020/12/20 10:43:40;;;;;;;26.93;17.77;;;10.70;99.90;;;9.05;100.00;101524.16;5010428;28;20582;-81
2020/12/20 10:46:25;;;;;;;18.87;8.63;;;10.80;99.90;;;9.06;100.00;101515.53;5020672;28;20212;-80
2020/12/20 10:49:10;;;;;;;11.33;4.33;;;10.90;99.90;;;9.11;100.00;101518.94;5008563;28;20273;-77
2020/12/20 10:51:56;;;;;;;11.80;4.60;;;10.90;99.90;;;9.13;100.00;101527.50;5002514;28;20236;-79
2020/12/20 10:54:41;;;;;;;15.73;4.30;;;10.90;99.90;;;9.21;100.00;101517.16;5005582;28;20764;-81
2020/12/20 10:57:29;;;;;;;18.93;4.47;;;11.00;99.90;;;9.36;100.00;101526.47;5007834;28;20220;-81
2020/12/20 11:00:15;;;;;;;16.80;4.63;;;11.00;99.90;;;9.68;100.00;101514.97;4998190;28;20463;-81
2020/12/20 11:03:02;;;;;;;16.50;5.10;;;11.10;99.90;;;9.59;100.00;101515.06;5004759;28;20647;-81
2020/12/20 11:05:47;;;;;;;13.60;5.00;;;11.10;99.90;;;9.63;100.00;101511.59;5004665;28;20216;-77
2020/12/20 11:08:32;;;;;;;18.03;4.67;;;11.20;99.90;;;9.92;100.00;101523.31;5003819;28;20272;-77
2020/12/20 11:11:18;;;;;;;9.77;3.70;;;11.30;99.90;;;10.55;100.00;101519.97;5006420;28;20668;-77
2020/12/20 11:14:04;;;;;;;12.03;4.23;;;11.30;99.90;;;11.07;100.00;101526.06;5002567;28;20308;-80
2020/12/20 11:16:50;;;;;;;9.33;4.03;;;11.50;99.90;;;11.73;100.00;101513.69;5006706;28;20208;-79
2020/12/20 11:19:36;;;;;;;9.37;3.17;;;11.60;99.90;;;11.17;100.00;101519.88;5005061;28;20617;-80
2020/12/20 11:22:21;;;;;;;9.13;2.57;;;11.90;99.90;;;10.49;100.00;101518.31;5005308;28;20325;-81
2020/12/20 11:25:06;;;;;;;11.43;3.43;;;12.10;99.90;;;10.90;100.00;101505.66;5007676;28;20263;-79
2020/12/20 11:27:51;;;;;;;16.80;4.57;;;12.30;99.90;;;10.53;100.00;101509.63;5005271;28;20658;-81
2020/12/20 11:30:37;;;;;;;12.67;3.83;;;12.40;99.90;;;11.75;100.00;101501.56;5010170;28;20223;-81
2020/12/20 11:33:24;;;;;;;15.67;4.77;;;12.50;99.90;;;13.09;100.00;101513.38;5006045;28;20658;-81